Dairy, Oregon
Current Conditions -  °F | °C
As of 2:53 PM on Monday 20 Oct 2014 (Local Time) from KLMT Reporting Station
Overcast Overcast  
Wind Chill: 53°   Ceiling: 4200
Heat Index: 53°   Visibility: 10mi
Dew Point: 43°   Wind: 13mph
Humidity: 69%   Direction: 280°W
Pressure: 29.86"   Gusts: NA
Location:  42.23°N, 121.52°W
Report Text: KLMT 202153Z 28011KT 10SM SCT025 BKN042 OVC055 12/06 A2986 RMK AO2 SLP090 T01170061
Loading
Personal Weather Stations






























Interactive Weather Map
Tropical Storm Tracking
New forecast layout! Learn more

10-Day Weather Forecast

Advertisements
Track Severe Weather on mobile